CheckWX is a tool to help pilots better visualize weather data.  It is not intended as a substitute for an official pre-flight weather briefing.

05:28:18 UTC

KSJC METAR
Norman Y. Mineta San Jose International Airport
San Jose, California, USA
Current

35 mins ago

KSJC 120453Z 32005KT 10SM CLR 21/12 A2999 RMK AO2 SLP153 T02060117
Observed
Jul-12 @ 04:53 UTC
Wind
  • 320° at 5 KTS
Visibility
10 SM
Flight Rules
VFR
Cloud Levels
  • Clear skies
Temperature
21°C / 70°F
Dewpoint
12°C / 54°F
Humidity
57%
Altimeter
29.99" Hg
Pressure
1015.62 hPa
Previous

2 hours ago

KSJC 120353Z 32007KT 10SM CLR 22/11 A2997 RMK AO2 SLP148 T02220106
Observed
Jul-12 @ 03:53 UTC
Wind
  • 320° at 7 KTS
Visibility
10 SM
Flight Rules
VFR
Cloud Levels
  • Clear skies
Temperature
22°C / 72°F
Dewpoint
11°C / 52°F
Humidity
50%
Altimeter
29.97" Hg
Pressure
1014.92 hPa
Previous

3 hours ago

KSJC 120253Z 31011KT 10SM CLR 26/10 A2996 RMK AO2 SLP145 T02560100 53000
Observed
Jul-12 @ 02:53 UTC
Wind
  • 310° at 11 KTS
Visibility
10 SM
Flight Rules
VFR
Cloud Levels
  • Clear skies
Temperature
26°C / 79°F
Dewpoint
10°C / 50°F
Humidity
37%
Altimeter
29.96" Hg
Pressure
1014.52 hPa